Time;durP1;ratioP1;P1;durP2;ratioP2;P2;SDS_P1;SDS_P2;PMS_P1;PMS_P2;Temp;Humidity;BMP_temperature;BMP_pressure;BME280_temperature;BME280_humidity;BME280_pressure;Samples;Min_cycle;Max_cycle;Signal;HPM_P1;HPM_P2
2023/01/29 00:01:41;;;;;;;15.53;11.53;;;4.50;97.20;;;;;;5068747;28;20428;-90
2023/01/29 00:04:07;;;;;;;15.90;11.63;;;4.50;97.10;;;;;;5067822;28;20436;-90
2023/01/29 00:06:33;;;;;;;15.57;11.57;;;4.50;97.10;;;;;;5069309;28;20500;-90
2023/01/29 00:08:59;;;;;;;15.77;11.43;;;4.60;97.10;;;;;;5050443;28;20408;-90
2023/01/29 00:11:25;;;;;;;15.27;11.48;;;4.70;97.10;;;;;;5069527;28;20452;-92
2023/01/29 00:13:51;;;;;;;17.55;12.65;;;4.50;97.10;;;;;;5066915;28;20487;-92
2023/01/29 00:16:17;;;;;;;16.98;12.40;;;4.60;97.00;;;;;;5052213;28;20458;-90
2023/01/29 00:18:43;;;;;;;17.75;12.73;;;4.60;97.00;;;;;;5050953;28;20439;-91
2023/01/29 00:21:13;;;;;;;17.90;12.80;;;4.70;97.00;;;;;;5068189;28;20412;-92
2023/01/29 00:23:39;;;;;;;17.42;12.65;;;4.70;97.00;;;;;;5052164;28;20432;-91
2023/01/29 00:26:05;;;;;;;17.30;13.50;;;4.70;96.90;;;;;;5050120;28;20396;-91
2023/01/29 00:28:31;;;;;;;17.30;12.70;;;4.70;96.90;;;;;;5068172;28;20400;-91
2023/01/29 00:30:56;;;;;;;17.75;13.75;;;4.70;96.80;;;;;;5066664;28;20403;-91
2023/01/29 00:33:22;;;;;;;18.57;14.20;;;4.70;96.70;;;;;;5051993;28;20411;-91
2023/01/29 00:35:47;;;;;;;17.27;14.30;;;4.70;96.80;;;;;;5066866;28;20435;-91
2023/01/29 00:38:13;;;;;;;18.50;14.70;;;4.80;96.80;;;;;;5068556;28;20430;-91
2023/01/29 00:46:09;;;;;;;16.25;13.68;;;4.80;96.70;;;;;;5068392;28;20418;-92
2023/01/29 00:48:35;;;;;;;16.90;13.60;;;4.80;96.70;;;;;;5049586;28;20403;-91
2023/01/29 00:51:01;;;;;;;16.05;13.55;;;4.80;96.70;;;;;;5068213;28;20460;-91
2023/01/29 00:53:28;;;;;;;16.23;12.55;;;4.80;96.80;;;;;;5050660;28;20511;-90
2023/01/29 00:55:53;;;;;;;13.52;10.82;;;4.90;96.60;;;;;;5050308;28;20455;-90
2023/01/29 00:58:32;;;;;;;12.53;10.83;;;4.90;96.40;;;;;;5068246;28;20906;-90
2023/01/29 01:01:01;;;;;;;12.73;11.10;;;4.90;96.30;;;;;;5066247;28;21128;-92
2023/01/29 01:03:28;;;;;;;15.70;10.87;;;4.80;96.30;;;;;;5051644;28;20520;-91
2023/01/29 01:06:08;;;;;;;14.80;11.05;;;5.30;96.30;;;;;;5049658;28;20892;-91
2023/01/29 01:11:19;;;;;;;10.82;9.27;;;4.90;96.10;;;;;;5068242;28;20443;-90
2023/01/29 01:13:44;;;;;;;11.32;9.00;;;4.90;96.20;;;;;;5049395;28;20483;-91
2023/01/29 01:16:12;;;;;;;11.67;9.80;;;4.90;96.10;;;;;;5067982;28;20412;-91
2023/01/29 01:18:39;;;;;;;11.18;9.02;;;4.90;96.20;;;;;;5049191;28;20439;-90
2023/01/29 01:21:05;;;;;;;10.82;9.13;;;5.00;96.50;;;;;;5051567;28;20396;-92
2023/01/29 01:23:31;;;;;;;10.38;9.10;;;5.00;96.30;;;;;;5066089;28;20440;-90
2023/01/29 01:25:56;;;;;;;10.63;9.48;;;5.20;96.30;;;;;;5050760;28;20392;-91
2023/01/29 01:28:22;;;;;;;12.10;10.05;;;4.90;96.30;;;;;;5050760;28;20414;-91
2023/01/29 01:30:48;;;;;;;12.87;10.23;;;5.00;96.30;;;;;;5065747;28;20482;-92
2023/01/29 01:33:13;;;;;;;12.10;10.20;;;5.00;96.40;;;;;;5067717;28;20412;-91
2023/01/29 01:35:39;;;;;;;17.73;11.38;;;5.00;96.40;;;;;;5066424;28;20439;-91
2023/01/29 01:38:05;;;;;;;13.43;10.98;;;5.20;96.60;;;;;;5050677;28;20404;-91
2023/01/29 01:40:31;;;;;;;13.60;11.32;;;5.00;96.60;;;;;;5065327;28;20534;-90
2023/01/29 01:42:58;;;;;;;14.07;11.63;;;5.00;96.50;;;;;;5067206;28;20443;-91
2023/01/29 01:45:31;;;;;;;13.63;12.03;;;5.00;96.50;;;;;;5049833;28;20434;-92
2023/01/29 01:48:04;;;;;;;14.10;12.30;;;5.00;96.50;;;;;;5066440;28;21150;-90
2023/01/29 01:50:41;;;;;;;16.98;13.63;;;5.00;96.70;;;;;;5051016;28;20403;-89
2023/01/29 01:53:14;;;;;;;18.38;13.98;;;5.00;96.90;;;;;;5048840;28;20914;-91
2023/01/29 01:55:57;;;;;;;17.48;15.18;;;5.00;96.90;;;;;;5051250;28;20813;-91
2023/01/29 01:58:34;;;;;;;17.88;14.77;;;5.00;96.80;;;;;;5050133;28;20415;-91
2023/01/29 02:01:02;;;;;;;16.95;14.82;;;5.00;96.90;;;;;;5049200;28;20903;-90
2023/01/29 02:09:33;;;;;;;19.58;16.63;;;5.00;97.00;;;;;;5067355;28;20495;-91
2023/01/29 02:11:59;;;;;;;19.30;16.98;;;5.10;96.90;;;;;;5050835;28;20430;-91
2023/01/29 02:14:25;;;;;;;21.77;16.98;;;5.00;97.00;;;;;;5065381;28;20400;-90
2023/01/29 02:16:51;;;;;;;18.85;16.83;;;5.00;96.90;;;;;;5050407;28;20412;-91
2023/01/29 02:20:14;;;;;;;19.33;17.27;;;5.10;96.80;;;;;;5048692;28;20430;-92
2023/01/29 02:23:04;;;;;;;20.67;17.88;;;5.10;96.80;;;;;;5028404;28;20433;-91
2023/01/29 02:25:51;;;;;;;20.27;18.08;;;5.10;96.90;;;;;;5030096;28;20421;-90
2023/01/29 02:28:40;;;;;;;22.13;18.23;;;5.10;96.70;;;;;;5044236;28;20418;-91
2023/01/29 02:31:31;;;;;;;24.40;18.25;;;5.10;96.60;;;;;;5049714;28;20407;-91
2023/01/29 02:37:30;;;;;;;23.77;19.27;;;5.10;96.50;;;;;;5066318;28;20445;-90
2023/01/29 02:40:03;;;;;;;21.73;19.30;;;5.10;96.60;;;;;;5049031;28;20499;-91
2023/01/29 02:42:47;;;;;;;24.47;19.63;;;5.20;96.80;;;;;;5050248;28;20794;-91
2023/01/29 02:45:21;;;;;;;27.13;22.45;;;5.10;97.00;;;;;;5064986;28;20488;-91
2023/01/29 02:47:57;;;;;;;28.80;23.77;;;5.40;97.30;;;;;;5050000;28;20412;-92
2023/01/29 02:50:49;;;;;;;31.57;24.53;;;5.10;97.40;;;;;;5067110;28;20494;-91
2023/01/29 02:53:22;;;;;;;32.60;26.35;;;5.10;97.40;;;;;;5051903;28;20465;-92
2023/01/29 02:55:55;;;;;;;32.67;26.95;;;5.10;97.60;;;;;;5070519;28;20396;-90
2023/01/29 02:58:43;;;;;;;34.78;28.50;;;5.00;97.70;;;;;;5051832;28;20404;-91
2023/01/29 03:01:29;;;;;;;34.40;28.75;;;5.00;97.60;;;;;;5053371;28;20416;-91
2023/01/29 03:04:01;;;;;;;36.88;29.77;;;5.00;97.70;;;;;;5070462;28;20436;-91
2023/01/29 03:06:41;;;;;;;35.88;28.65;;;5.00;97.70;;;;;;5068270;28;20865;-92
2023/01/29 03:09:13;;;;;;;36.78;30.00;;;4.90;97.80;;;;;;5053535;28;20422;-91
2023/01/29 03:11:45;;;;;;;35.92;29.25;;;5.00;97.90;;;;;;5068541;28;20404;-90
2023/01/29 03:14:24;;;;;;;30.70;26.05;;;4.90;98.00;;;;;;5052591;28;20498;-92
2023/01/29 03:16:51;;;;;;;30.77;25.73;;;4.90;97.90;;;;;;5053591;28;20450;-91
2023/01/29 03:19:41;;;;;;;32.10;25.17;;;5.20;98.00;;;;;;5051612;28;20411;-92
2023/01/29 03:22:09;;;;;;;28.47;25.00;;;4.90;97.90;;;;;;5052474;28;20441;-91
2023/01/29 03:33:19;;;;;;;29.70;24.23;;;4.90;97.80;;;;;;5068177;28;20396;-91
2023/01/29 03:36:07;;;;;;;27.77;23.50;;;4.90;97.70;;;;;;5052336;28;20412;-91
2023/01/29 03:38:33;;;;;;;25.50;22.27;;;4.90;97.60;;;;;;5052961;28;20408;-91
2023/01/29 03:41:14;;;;;;;25.87;22.70;;;4.90;97.50;;;;;;5067632;28;20499;-91
2023/01/29 03:44:07;;;;;;;25.35;22.30;;;4.90;97.40;;;;;;5053115;28;20428;-91
2023/01/29 03:47:03;;;;;;;26.80;23.30;;;4.90;97.20;;;;;;5069577;28;20408;-92
2023/01/29 03:49:53;;;;;;;25.52;22.45;;;4.90;97.60;;;;;;5051076;28;20498;-91
2023/01/29 03:52:53;;;;;;;28.38;24.20;;;4.90;97.30;;;;;;5053234;28;20842;-93
2023/01/29 03:55:37;;;;;;;27.95;24.00;;;5.00;97.50;;;;;;5035871;28;20422;-91
2023/01/29 03:58:26;;;;;;;26.08;23.38;;;4.90;97.10;;;;;;5050741;28;20430;-91
2023/01/29 04:01:00;;;;;;;28.03;23.83;;;5.00;97.00;;;;;;5069113;28;20451;-92
2023/01/29 04:03:36;;;;;;;27.60;24.55;;;5.00;97.00;;;;;;5050638;28;20490;-91
2023/01/29 04:06:33;;;;;;;28.23;24.38;;;4.90;96.90;;;;;;5052278;28;20924;-92
2023/01/29 04:09:16;;;;;;;27.33;24.40;;;5.00;96.80;;;;;;5060899;28;20472;-91
2023/01/29 04:11:51;;;;;;;30.38;25.85;;;5.00;96.90;;;;;;5067075;28;20399;-91
2023/01/29 04:14:17;;;;;;;31.80;26.05;;;5.00;96.80;;;;;;5052512;28;20423;-91
2023/01/29 04:16:53;;;;;;;26.98;24.02;;;5.00;96.80;;;;;;5050785;28;20396;-91
2023/01/29 04:19:19;;;;;;;27.33;24.25;;;5.00;96.70;;;;;;5068424;28;20435;-91
2023/01/29 04:21:49;;;;;;;26.88;23.98;;;5.00;96.40;;;;;;5052280;28;20511;-92
2023/01/29 04:24:16;;;;;;;26.05;23.02;;;5.00;96.40;;;;;;5050064;28;20542;-91
2023/01/29 04:26:55;;;;;;;28.63;24.80;;;5.00;96.30;;;;;;5068314;28;20410;-90
2023/01/29 04:29:47;;;;;;;26.60;23.70;;;5.00;96.50;;;;;;5067208;28;20408;-92
2023/01/29 04:32:45;;;;;;;27.48;23.42;;;5.00;96.40;;;;;;5051234;28;20416;-90
2023/01/29 04:35:36;;;;;;;25.13;22.23;;;5.00;96.60;;;;;;5060578;28;20408;-91
2023/01/29 04:38:07;;;;;;;24.53;21.93;;;5.00;96.40;;;;;;5049975;28;20483;-92
2023/01/29 04:40:46;;;;;;;25.60;22.10;;;5.00;96.30;;;;;;5051546;28;20752;-90
2023/01/29 04:43:33;;;;;;;24.52;21.88;;;5.00;96.50;;;;;;5051576;28;20442;-92
2023/01/29 04:46:11;;;;;;;23.85;21.27;;;5.00;96.50;;;;;;5049848;28;20465;-92
2023/01/29 04:48:43;;;;;;;23.63;20.85;;;5.00;96.60;;;;;;5051515;28;20494;-92
2023/01/29 04:51:23;;;;;;;23.10;20.35;;;5.10;96.50;;;;;;5050122;28;20419;-90
2023/01/29 04:53:58;;;;;;;23.92;21.23;;;5.00;96.40;;;;;;5050854;28;20412;-90
2023/01/29 04:56:37;;;;;;;24.58;21.88;;;5.00;96.60;;;;;;5051872;28;20412;-90
2023/01/29 04:59:08;;;;;;;24.88;22.23;;;5.00;96.60;;;;;;5049747;28;20416;-91
2023/01/29 05:01:35;;;;;;;24.77;22.00;;;5.00;96.80;;;;;;5051769;28;20419;-90
2023/01/29 05:04:06;;;;;;;23.23;20.83;;;5.00;96.70;;;;;;5049298;28;20511;-91
2023/01/29 05:06:32;;;;;;;23.70;21.20;;;5.00;96.50;;;;;;5051178;28;20478;-90
2023/01/29 05:08:59;;;;;;;23.90;21.27;;;5.00;96.30;;;;;;5067039;28;20519;-91
2023/01/29 05:11:25;;;;;;;23.42;21.02;;;5.00;96.30;;;;;;5050328;28;20399;-90
2023/01/29 05:13:51;;;;;;;23.67;21.08;;;5.00;96.20;;;;;;5050799;28;20971;-91
2023/01/29 05:16:40;;;;;;;22.30;19.90;;;5.00;96.20;;;;;;5065977;28;20494;-89
2023/01/29 05:19:11;;;;;;;22.38;19.98;;;5.00;96.10;;;;;;5067878;28;20781;-90
2023/01/29 05:21:39;;;;;;;23.47;21.07;;;5.00;96.20;;;;;;5049705;28;20756;-90
2023/01/29 05:24:16;;;;;;;23.42;21.02;;;5.00;96.20;;;;;;5066979;28;20422;-91
2023/01/29 05:29:29;;;;;;;22.80;20.55;;;5.10;96.00;;;;;;5065841;28;20418;-91
2023/01/29 05:31:54;;;;;;;22.58;20.20;;;5.10;96.00;;;;;;5050927;28;20427;-89
2023/01/29 05:34:20;;;;;;;23.58;21.08;;;5.10;96.00;;;;;;5099875;28;20405;-90
2023/01/29 05:36:46;;;;;;;23.45;20.90;;;5.10;95.90;;;;;;5050654;28;20508;-91
2023/01/29 05:39:11;;;;;;;22.80;20.40;;;5.10;96.10;;;;;;5050092;28;20420;-90
2023/01/29 05:41:37;;;;;;;22.70;20.40;;;5.10;96.00;;;;;;5049514;28;20497;-91
2023/01/29 05:44:03;;;;;;;22.52;20.33;;;5.10;95.70;;;;;;5101010;28;20440;-90
2023/01/29 05:46:28;;;;;;;21.92;19.63;;;5.10;95.60;;;;;;5049168;28;20822;-90
2023/01/29 05:48:54;;;;;;;21.17;18.97;;;5.10;95.60;;;;;;5050810;28;20502;-91
2023/01/29 05:51:20;;;;;;;21.00;18.90;;;5.10;95.70;;;;;;5048774;28;20846;-89
2023/01/29 05:53:45;;;;;;;18.83;16.88;;;5.30;95.60;;;;;;5084350;28;20786;-90
2023/01/29 05:56:11;;;;;;;20.77;18.67;;;5.10;95.10;;;;;;5049332;28;20469;-91
2023/01/29 05:58:37;;;;;;;19.90;17.77;;;5.10;95.20;;;;;;5083456;28;20703;-90
2023/01/29 06:01:11;;;;;;;21.47;19.17;;;5.20;95.30;;;;;;5101431;28;21112;-90
2023/01/29 06:03:36;;;;;;;22.10;19.77;;;5.20;95.30;;;;;;5047505;28;20427;-90
2023/01/29 06:06:02;;;;;;;21.70;19.07;;;5.20;95.50;;;;;;5066514;28;20466;-91
2023/01/29 06:08:28;;;;;;;21.95;19.67;;;5.20;95.50;;;;;;5048389;28;20469;-91
2023/01/29 06:10:53;;;;;;;25.23;21.63;;;5.30;95.30;;;;;;5050040;28;20510;-90
2023/01/29 06:13:19;;;;;;;23.63;21.17;;;5.20;95.40;;;;;;5048012;28;20454;-90
2023/01/29 06:15:45;;;;;;;24.97;21.53;;;5.30;95.40;;;;;;5049803;28;21377;-91
2023/01/29 06:18:11;;;;;;;24.50;21.80;;;5.30;95.20;;;;;;5048168;28;20411;-90
2023/01/29 06:20:36;;;;;;;26.47;22.73;;;5.20;95.20;;;;;;5065273;28;20553;-91
2023/01/29 06:23:02;;;;;;;25.85;22.95;;;5.20;95.30;;;;;;5049888;28;20791;-89
2023/01/29 06:25:28;;;;;;;29.57;25.70;;;5.10;95.40;;;;;;5040407;28;20422;-90
2023/01/29 06:27:53;;;;;;;31.80;26.87;;;5.10;95.30;;;;;;5053906;28;20952;-91
2023/01/29 06:30:19;;;;;;;31.85;27.40;;;5.10;95.40;;;;;;5068448;28;20412;-90
2023/01/29 06:32:45;;;;;;;37.08;30.75;;;5.10;95.60;;;;;;5054287;28;20922;-90
2023/01/29 06:35:10;;;;;;;33.40;29.80;;;5.40;95.80;;;;;;5052247;28;20415;-90
2023/01/29 06:37:36;;;;;;;33.60;29.90;;;5.10;95.80;;;;;;5053176;28;20435;-92
2023/01/29 06:40:02;;;;;;;35.80;30.08;;;5.10;95.90;;;;;;5054028;28;20404;-91
2023/01/29 06:42:28;;;;;;;34.55;28.30;;;5.10;95.80;;;;;;5051878;28;20420;-89
2023/01/29 06:44:54;;;;;;;35.43;29.53;;;5.10;95.90;;;;;;5053746;28;20412;-91
2023/01/29 06:47:20;;;;;;;35.17;30.42;;;5.10;96.10;;;;;;5068169;28;20446;-92
2023/01/29 06:49:46;;;;;;;37.53;30.80;;;5.10;96.50;;;;;;5053833;28;20866;-89
2023/01/29 06:52:12;;;;;;;36.28;31.13;;;5.00;96.60;;;;;;5051349;28;20893;-91
2023/01/29 06:54:38;;;;;;;37.28;32.17;;;5.00;96.80;;;;;;5070279;28;20461;-89
2023/01/29 06:57:03;;;;;;;39.13;33.47;;;5.00;96.90;;;;;;5052253;28;20856;-90
2023/01/29 06:59:29;;;;;;;41.93;34.10;;;5.00;97.10;;;;;;5069270;28;20415;-90
2023/01/29 07:01:55;;;;;;;41.53;34.95;;;5.00;97.20;;;;;;5053579;28;20438;-90
2023/01/29 07:04:20;;;;;;;39.03;34.17;;;5.00;97.30;;;;;;5051127;28;20451;-89
2023/01/29 07:06:46;;;;;;;40.10;35.13;;;4.90;97.30;;;;;;5053487;28;20408;-91
2023/01/29 07:09:12;;;;;;;44.03;36.97;;;4.90;97.40;;;;;;5051085;28;20445;-91
2023/01/29 07:11:39;;;;;;;43.22;35.70;;;4.90;97.50;;;;;;5064301;28;20399;-90
2023/01/29 07:14:04;;;;;;;45.17;38.42;;;4.80;97.80;;;;;;5058372;28;20416;-90
2023/01/29 07:16:30;;;;;;;47.92;39.30;;;4.80;97.50;;;;;;5056965;28;20813;-90
2023/01/29 07:18:56;;;;;;;45.63;39.17;;;4.90;97.60;;;;;;5052894;28;20446;-92
2023/01/29 07:21:22;;;;;;;45.53;36.60;;;4.80;97.60;;;;;;5051852;28;20408;-91
2023/01/29 07:23:48;;;;;;;44.72;37.72;;;4.80;97.70;;;;;;5053156;28;20423;-91
2023/01/29 07:26:14;;;;;;;44.35;36.42;;;4.80;97.60;;;;;;5051389;28;20429;-91
2023/01/29 07:28:40;;;;;;;41.97;35.60;;;4.80;97.60;;;;;;5053042;28;20762;-91
2023/01/29 07:31:10;;;;;;;44.13;35.83;;;4.80;97.60;;;;;;5048831;28;20407;-89
2023/01/29 07:33:36;;;;;;;44.45;37.42;;;4.80;97.60;;;;;;5067083;28;20403;-90
2023/01/29 07:36:06;;;;;;;41.43;34.97;;;4.90;97.70;;;;;;5051548;28;20987;-91
2023/01/29 07:38:32;;;;;;;44.75;36.88;;;4.90;97.60;;;;;;5068428;28;20404;-91
2023/01/29 07:40:58;;;;;;;42.58;36.60;;;4.90;97.50;;;;;;5085983;28;20921;-90
2023/01/29 07:43:23;;;;;;;44.17;37.17;;;4.90;97.40;;;;;;5050613;28;20454;-91
2023/01/29 07:45:49;;;;;;;44.77;36.80;;;5.10;97.40;;;;;;5068845;28;20419;-90
2023/01/29 07:48:15;;;;;;;42.50;37.90;;;4.80;97.30;;;;;;5049969;28;20492;-92
2023/01/29 07:50:42;;;;;;;48.73;38.80;;;4.90;97.30;;;;;;5036488;28;20492;-90
2023/01/29 07:53:14;;;;;;;48.00;40.10;;;4.90;97.50;;;;;;5067170;28;20416;-91
2023/01/29 07:55:42;;;;;;;51.60;42.25;;;4.90;97.60;;;;;;5049194;28;20416;-90
2023/01/29 07:58:08;;;;;;;55.25;44.17;;;4.80;97.70;;;;;;5052107;28;20423;-89
2023/01/29 08:00:34;;;;;;;58.40;45.57;;;4.90;98.00;;;;;;5050598;28;20411;-90
2023/01/29 08:03:04;;;;;;;61.63;46.50;;;5.10;98.30;;;;;;5051925;28;20466;-92
2023/01/29 08:05:30;;;;;;;58.08;45.53;;;4.80;98.30;;;;;;5050262;28;20450;-91
2023/01/29 08:07:56;;;;;;;64.57;47.00;;;4.80;98.50;;;;;;5051969;28;20427;-92
2023/01/29 08:10:21;;;;;;;67.68;49.95;;;4.80;98.60;;;;;;5083751;28;20423;-91
2023/01/29 08:12:52;;;;;;;70.40;50.30;;;4.80;98.70;;;;;;5052500;28;20399;-90
2023/01/29 08:15:17;;;;;;;66.00;48.72;;;4.80;98.70;;;;;;5052133;28;20408;-90
2023/01/29 08:17:43;;;;;;;67.40;51.53;;;4.80;98.90;;;;;;5050505;28;20413;-90
2023/01/29 08:20:09;;;;;;;66.53;50.03;;;4.80;98.90;;;;;;5052372;28;20416;-92
2023/01/29 08:22:35;;;;;;;65.35;47.60;;;4.80;98.80;;;;;;5066552;28;20487;-91
2023/01/29 08:25:00;;;;;;;64.00;46.83;;;4.90;98.90;;;;;;5051961;28;20513;-91
2023/01/29 08:27:26;;;;;;;69.17;49.37;;;4.80;98.80;;;;;;5083583;28;20953;-92
2023/01/29 08:29:52;;;;;;;70.88;50.90;;;4.90;98.90;;;;;;5051802;28;20415;-90
2023/01/29 08:32:17;;;;;;;69.15;50.08;;;5.00;99.00;;;;;;5050501;28;20426;-92
2023/01/29 08:34:43;;;;;;;66.73;49.93;;;5.00;98.90;;;;;;5050608;28;20408;-90
2023/01/29 08:37:09;;;;;;;67.07;48.90;;;5.00;98.80;;;;;;5067887;28;20427;-89
2023/01/29 08:39:34;;;;;;;64.85;49.15;;;5.00;98.80;;;;;;5049644;28;20408;-89
2023/01/29 08:42:00;;;;;;;64.53;47.83;;;5.00;98.90;;;;;;5051260;28;20495;-91
2023/01/29 08:44:28;;;;;;;65.25;48.15;;;5.00;98.70;;;;;;5050123;28;20431;-91
2023/01/29 08:46:54;;;;;;;61.72;46.25;;;5.00;98.80;;;;;;5051401;28;20930;-91
2023/01/29 08:49:20;;;;;;;64.57;46.88;;;5.00;98.80;;;;;;5048688;28;20411;-90
2023/01/29 08:51:45;;;;;;;64.83;45.93;;;5.10;98.80;;;;;;5101946;28;20977;-90
2023/01/29 08:54:11;;;;;;;60.83;45.37;;;5.10;98.90;;;;;;5050612;28;20420;-90
2023/01/29 08:56:36;;;;;;;65.47;46.72;;;5.40;98.90;;;;;;5083101;28;20431;-90
2023/01/29 08:59:02;;;;;;;59.97;45.88;;;5.80;98.70;;;;;;5068095;28;20469;-90
2023/01/29 09:01:28;;;;;;;63.90;48.00;;;5.20;98.60;;;;;;5065608;28;20408;-91
2023/01/29 09:03:53;;;;;;;56.63;42.77;;;5.30;98.60;;;;;;5051254;28;20439;-90
2023/01/29 09:06:19;;;;;;;58.88;44.55;;;5.30;98.40;;;;;;5049282;28;20412;-91
2023/01/29 09:08:45;;;;;;;53.25;41.50;;;5.30;98.40;;;;;;5102033;28;20404;-91
2023/01/29 09:11:10;;;;;;;55.70;44.13;;;5.30;98.20;;;;;;5049600;28;20400;-91
2023/01/29 09:13:36;;;;;;;60.38;45.95;;;5.40;98.10;;;;;;5101092;28;20420;-91
2023/01/29 09:16:03;;;;;;;54.20;41.53;;;5.40;98.30;;;;;;5067475;28;20446;-90
2023/01/29 09:18:29;;;;;;;53.00;41.28;;;5.40;98.00;;;;;;5049396;28;20403;-91
2023/01/29 09:20:56;;;;;;;51.85;40.47;;;5.40;97.90;;;;;;5067601;28;20762;-91
2023/01/29 09:23:22;;;;;;;46.38;37.03;;;5.40;97.60;;;;;;5048793;28;20510;-91
2023/01/29 09:25:48;;;;;;;51.40;40.23;;;5.40;97.50;;;;;;5050852;28;20902;-90
2023/01/29 09:28:16;;;;;;;51.93;42.07;;;5.40;97.60;;;;;;5048606;28;20423;-89
2023/01/29 09:30:42;;;;;;;51.03;38.60;;;5.40;97.80;;;;;;5050616;28;20541;-91
2023/01/29 09:33:08;;;;;;;57.13;44.40;;;5.40;97.70;;;;;;5101039;28;20472;-91
2023/01/29 09:35:33;;;;;;;52.63;40.77;;;5.40;97.90;;;;;;5065970;28;20416;-90
2023/01/29 09:37:59;;;;;;;53.83;42.43;;;5.50;98.00;;;;;;5067580;28;20976;-91
2023/01/29 09:40:33;;;;;;;51.10;41.05;;;5.50;97.90;;;;;;5081702;28;20473;-91
2023/01/29 09:43:23;;;;;;;56.97;43.65;;;5.50;97.80;;;;;;5050747;28;20527;-90
2023/01/29 09:45:54;;;;;;;54.55;41.60;;;5.50;97.90;;;;;;5049365;28;20457;-91
2023/01/29 09:48:24;;;;;;;60.45;44.30;;;5.70;97.80;;;;;;5066410;28;20400;-90
2023/01/29 09:50:54;;;;;;;56.55;42.85;;;5.40;97.90;;;;;;5050361;28;20443;-90
2023/01/29 09:53:50;;;;;;;60.03;44.22;;;5.40;97.90;;;;;;5065340;28;20448;-91
2023/01/29 09:56:20;;;;;;;62.55;44.97;;;5.40;98.00;;;;;;5050744;28;20422;-91
2023/01/29 09:58:46;;;;;;;64.70;46.33;;;5.40;98.20;;;;;;5065549;28;20404;-92
2023/01/29 10:01:22;;;;;;;58.88;44.85;;;5.40;98.20;;;;;;5053842;28;20434;-90
2023/01/29 10:04:14;;;;;;;59.00;44.55;;;5.40;98.30;;;;;;5054818;28;20458;-91
2023/01/29 10:07:18;;;;;;;58.65;43.88;;;5.40;98.50;;;;;;5068908;28;20403;-90
2023/01/29 10:09:56;;;;;;;67.15;46.13;;;5.40;98.30;;;;;;5071067;28;20805;-90
2023/01/29 10:12:35;;;;;;;59.10;44.28;;;5.40;98.30;;;;;;5054117;28;20431;-90
2023/01/29 10:15:39;;;;;;;60.15;45.42;;;5.40;98.20;;;;;;5052373;28;20415;-90
2023/01/29 10:18:26;;;;;;;58.03;43.97;;;5.40;98.30;;;;;;5070564;28;20412;-90
2023/01/29 10:21:14;;;;;;;60.57;45.53;;;5.40;98.30;;;;;;5053798;28;20781;-90
2023/01/29 10:23:46;;;;;;;66.43;47.65;;;5.40;98.20;;;;;;5067646;28;20427;-90
2023/01/29 10:26:12;;;;;;;64.50;45.08;;;5.40;98.60;;;;;;5071285;28;20438;-89
2023/01/29 10:28:49;;;;;;;64.93;46.90;;;5.40;98.60;;;;;;5052382;28;20457;-90
2023/01/29 10:31:22;;;;;;;65.22;46.35;;;5.50;98.60;;;;;;5070855;28;20412;-90
2023/01/29 10:33:54;;;;;;;60.67;45.83;;;5.50;98.70;;;;;;5053495;28;20411;-91
2023/01/29 10:36:41;;;;;;;62.55;45.08;;;5.50;98.70;;;;;;5051863;28;20760;-91
2023/01/29 10:39:20;;;;;;;58.70;43.60;;;5.50;98.70;;;;;;5070840;28;20407;-90
2023/01/29 10:42:12;;;;;;;58.97;42.55;;;5.50;98.60;;;;;;5051887;28;20407;-89
2023/01/29 10:45:02;;;;;;;58.95;42.55;;;5.60;98.60;;;;;;5069326;28;20428;-90
2023/01/29 10:48:03;;;;;;;63.05;43.50;;;5.60;98.60;;;;;;5053745;28;20914;-88
2023/01/29 10:50:45;;;;;;;59.55;42.05;;;5.60;98.70;;;;;;5051656;28;20420;-89
2023/01/29 10:53:24;;;;;;;59.97;41.80;;;5.60;98.70;;;;;;5052641;28;20937;-90
2023/01/29 10:56:15;;;;;;;64.65;44.40;;;5.70;98.70;;;;;;5053556;28;20424;-88
2023/01/29 10:58:47;;;;;;;57.13;39.42;;;5.70;98.90;;;;;;5068307;28;20391;-91
2023/01/29 11:01:13;;;;;;;57.42;39.25;;;5.80;99.00;;;;;;5053605;28;20778;-90
2023/01/29 11:03:39;;;;;;;63.70;42.50;;;5.80;98.70;;;;;;5051726;28;20469;-91
2023/01/29 11:06:19;;;;;;;54.87;38.73;;;5.80;98.90;;;;;;5103504;28;20506;-92
2023/01/29 11:09:24;;;;;;;55.10;38.70;;;5.80;98.80;;;;;;5053423;28;20412;-92
2023/01/29 11:11:56;;;;;;;55.38;36.60;;;5.80;98.80;;;;;;5061458;28;20945;-92
2023/01/29 11:14:30;;;;;;;50.80;34.45;;;5.90;99.00;;;;;;5053240;28;20408;-91
2023/01/29 11:16:56;;;;;;;65.60;39.03;;;6.00;99.00;;;;;;5052298;28;20415;-89
2023/01/29 11:19:40;;;;;;;56.10;35.77;;;5.80;99.20;;;;;;5051833;28;20451;-91
2023/01/29 11:22:15;;;;;;;49.22;31.98;;;5.90;99.40;;;;;;5070149;28;20415;-92
2023/01/29 11:24:41;;;;;;;48.17;32.40;;;5.80;99.60;;;;;;5067508;28;20439;-91
2023/01/29 11:27:28;;;;;;;53.42;34.67;;;5.80;99.20;;;;;;5053014;28;20424;-90
2023/01/29 11:29:55;;;;;;;51.13;33.50;;;5.90;99.50;;;;;;5069609;28;20779;-89
2023/01/29 11:32:20;;;;;;;50.15;33.83;;;5.90;99.40;;;;;;5069015;28;20454;-90
2023/01/29 11:35:05;;;;;;;50.50;33.77;;;5.90;99.40;;;;;;5052632;28;20506;-91
2023/01/29 11:37:38;;;;;;;51.83;33.38;;;5.90;99.30;;;;;;5067592;28;20454;-89
2023/01/29 11:40:22;;;;;;;54.03;34.63;;;6.00;99.30;;;;;;5052695;28;20407;-89
2023/01/29 11:42:49;;;;;;;50.13;35.30;;;6.00;99.40;;;;;;5051480;28;20459;-90
2023/01/29 11:45:31;;;;;;;53.53;36.92;;;6.10;99.10;;;;;;5068441;28;20768;-90
2023/01/29 11:47:57;;;;;;;51.47;36.38;;;6.10;99.10;;;;;;5052096;28;20415;-92
2023/01/29 11:50:32;;;;;;;51.37;35.83;;;6.50;99.20;;;;;;5049806;28;20411;-90
2023/01/29 11:53:02;;;;;;;50.55;35.80;;;6.20;99.00;;;;;;5052317;28;20410;-90
2023/01/29 11:55:31;;;;;;;47.05;33.42;;;6.10;98.90;;;;;;5050061;28;20400;-92
2023/01/29 11:58:15;;;;;;;46.38;33.45;;;6.10;99.00;;;;;;5051232;28;20411;-91
2023/01/29 12:00:47;;;;;;;46.85;33.53;;;6.10;98.90;;;;;;5051940;28;20418;-89
2023/01/29 12:03:23;;;;;;;45.15;32.63;;;6.10;98.90;;;;;;5050313;28;20482;-90
2023/01/29 12:05:56;;;;;;;42.88;31.98;;;6.20;98.80;;;;;;5052175;28;20416;-90
2023/01/29 12:08:22;;;;;;;40.85;30.80;;;6.20;98.70;;;;;;5050570;28;20453;-89
2023/01/29 12:10:48;;;;;;;40.05;28.73;;;6.50;98.70;;;;;;5068672;28;20412;-90
2023/01/29 12:13:18;;;;;;;36.60;27.95;;;6.20;98.50;;;;;;5067829;28;20391;-90
2023/01/29 12:15:46;;;;;;;33.08;25.58;;;6.30;98.40;;;;;;5067691;28;20974;-89
2023/01/29 12:18:34;;;;;;;34.85;27.90;;;6.30;98.30;;;;;;5068191;28;20424;-90
2023/01/29 12:21:28;;;;;;;35.60;26.70;;;6.30;98.40;;;;;;5049670;28;20470;-92
2023/01/29 12:24:02;;;;;;;39.03;28.73;;;6.30;98.30;;;;;;5046873;28;20431;-90
2023/01/29 12:26:53;;;;;;;42.20;31.30;;;6.30;98.40;;;;;;5051542;28;20411;-89
2023/01/29 12:29:37;;;;;;;38.08;28.33;;;6.30;98.50;;;;;;5049709;28;20444;-89
2023/01/29 12:32:08;;;;;;;37.97;27.98;;;6.40;98.30;;;;;;5068392;28;20427;-90
2023/01/29 12:34:48;;;;;;;34.75;25.70;;;6.40;98.40;;;;;;5050259;28;20430;-89
2023/01/29 12:37:22;;;;;;;35.20;26.17;;;6.40;98.40;;;;;;5050429;28;20419;-89
2023/01/29 12:39:50;;;;;;;36.50;27.42;;;6.40;98.50;;;;;;5051463;28;20416;-88
2023/01/29 12:42:19;;;;;;;37.58;27.67;;;6.30;98.50;;;;;;5066095;28;20963;-88
2023/01/29 12:44:57;;;;;;;38.97;27.52;;;6.30;98.60;;;;;;5051165;28;20799;-91
2023/01/29 12:47:25;;;;;;;45.90;30.42;;;6.40;98.90;;;;;;5049763;28;20416;-90
2023/01/29 12:49:55;;;;;;;43.67;31.30;;;6.30;98.80;;;;;;5050972;28;20896;-89
2023/01/29 12:52:36;;;;;;;42.60;30.92;;;6.20;98.90;;;;;;5067201;28;20407;-88
2023/01/29 12:55:13;;;;;;;55.00;35.45;;;6.20;98.80;;;;;;5049054;28;20418;-89
2023/01/29 12:57:57;;;;;;;48.72;34.13;;;6.10;99.00;;;;;;5065268;28;20412;-90
2023/01/29 13:00:28;;;;;;;55.45;37.33;;;6.10;99.00;;;;;;5065908;28;20855;-89
2023/01/29 13:03:19;;;;;;;55.42;38.60;;;6.00;98.90;;;;;;5050797;28;20423;-90
2023/01/29 13:05:59;;;;;;;47.72;34.60;;;6.00;99.20;;;;;;5051756;28;20426;-89
2023/01/29 13:08:36;;;;;;;46.58;33.95;;;5.90;99.00;;;;;;5049042;28;20430;-92
2023/01/29 13:11:07;;;;;;;57.08;38.67;;;5.80;99.10;;;;;;5067481;28;20419;-90
2023/01/29 13:13:41;;;;;;;54.25;36.88;;;5.80;99.20;;;;;;5049708;28;20400;-90
2023/01/29 13:16:11;;;;;;;47.20;34.10;;;5.80;99.40;;;;;;5049498;28;20483;-89
2023/01/29 13:18:43;;;;;;;46.35;32.47;;;5.90;99.60;;;;;;5067763;28;20518;-89
2023/01/29 13:21:16;;;;;;;46.50;30.93;;;5.90;99.50;;;;;;5099375;28;20416;-90
2023/01/29 13:23:46;;;;;;;43.92;29.60;;;5.80;99.60;;;;;;5051061;28;20486;-89
2023/01/29 13:26:12;;;;;;;45.55;29.35;;;5.90;99.70;;;;;;5048039;28;20407;-91
2023/01/29 13:28:38;;;;;;;38.33;26.87;;;6.00;99.80;;;;;;5050647;28;20417;-89
2023/01/29 13:31:30;;;;;;;45.30;29.35;;;5.90;99.80;;;;;;5049212;28;20454;-89
2023/01/29 13:34:17;;;;;;;49.13;31.08;;;5.90;99.70;;;;;;5047547;28;20494;-90